sensor_id;sensor_type;location;lat;lon;timestamp;pressure;altitude;pressure_sealevel;temperature;humidity
16120;BME280;12670;53.502;10.252;2022-10-16T00:01:05;100596.19;;;15.15;100.00
16120;BME280;12670;53.502;10.252;2022-10-16T00:04:09;100582.19;;;14.98;100.00
16120;BME280;12670;53.502;10.252;2022-10-16T00:07:12;100586.25;;;15.17;100.00
16120;BME280;12670;53.502;10.252;2022-10-16T00:10:14;100594.03;;;15.08;100.00
16120;BME280;12670;53.502;10.252;2022-10-16T00:13:17;100590.69;;;15.18;100.00
16120;BME280;12670;53.502;10.252;2022-10-16T00:16:21;100591.50;;;15.33;100.00
16120;BME280;12670;53.502;10.252;2022-10-16T00:19:25;100593.41;;;15.31;100.00
16120;BME280;12670;53.502;10.252;2022-10-16T00:22:27;100609.25;;;15.06;100.00
16120;BME280;12670;53.502;10.252;2022-10-16T00:25:30;100597.41;;;15.24;100.00
16120;BME280;12670;53.502;10.252;2022-10-16T00:28:35;100601.94;;;14.95;100.00
16120;BME280;12670;53.502;10.252;2022-10-16T00:31:38;100606.72;;;14.90;100.00
16120;BME280;12670;53.502;10.252;2022-10-16T00:34:42;100601.63;;;15.00;100.00
16120;BME280;12670;53.502;10.252;2022-10-16T00:37:45;100602.31;;;14.60;100.00
16120;BME280;12670;53.502;10.252;2022-10-16T00:40:47;100614.91;;;14.87;100.00
16120;BME280;12670;53.502;10.252;2022-10-16T00:43:52;100607.84;;;15.14;100.00
16120;BME280;12670;53.502;10.252;2022-10-16T00:46:55;100607.09;;;14.98;100.00
16120;BME280;12670;53.502;10.252;2022-10-16T00:50:02;100604.50;;;14.82;100.00
16120;BME280;12670;53.502;10.252;2022-10-16T00:53:08;100614.03;;;14.72;100.00
16120;BME280;12670;53.502;10.252;2022-10-16T00:56:12;100612.22;;;14.73;100.00
16120;BME280;12670;53.502;10.252;2022-10-16T00:59:18;100619.84;;;14.93;100.00
16120;BME280;12670;53.502;10.252;2022-10-16T01:02:21;100620.72;;;14.93;100.00
16120;BME280;12670;53.502;10.252;2022-10-16T01:05:32;100627.13;;;14.91;100.00
16120;BME280;12670;53.502;10.252;2022-10-16T01:08:41;100617.19;;;14.79;100.00
16120;BME280;12670;53.502;10.252;2022-10-16T01:11:53;100630.13;;;14.71;100.00
16120;BME280;12670;53.502;10.252;2022-10-16T01:15:06;100626.16;;;14.78;100.00
16120;BME280;12670;53.502;10.252;2022-10-16T01:18:14;100631.06;;;14.55;100.00
16120;BME280;12670;53.502;10.252;2022-10-16T01:21:23;100627.63;;;14.53;100.00
16120;BME280;12670;53.502;10.252;2022-10-16T01:24:32;100635.06;;;14.48;100.00
16120;BME280;12670;53.502;10.252;2022-10-16T01:27:39;100635.34;;;14.58;100.00
16120;BME280;12670;53.502;10.252;2022-10-16T01:30:44;100646.16;;;14.40;100.00
16120;BME280;12670;53.502;10.252;2022-10-16T01:33:56;100638.44;;;14.66;100.00
16120;BME280;12670;53.502;10.252;2022-10-16T01:37:05;100643.94;;;14.33;100.00
16120;BME280;12670;53.502;10.252;2022-10-16T01:40:13;100645.88;;;14.45;100.00
16120;BME280;12670;53.502;10.252;2022-10-16T01:43:20;100650.81;;;14.37;100.00
16120;BME280;12670;53.502;10.252;2022-10-16T01:46:27;100650.34;;;14.60;100.00
16120;BME280;12670;53.502;10.252;2022-10-16T01:49:33;100648.03;;;14.08;100.00
16120;BME280;12670;53.502;10.252;2022-10-16T01:52:39;100640.44;;;14.17;100.00
16120;BME280;12670;53.502;10.252;2022-10-16T01:55:44;100642.47;;;14.43;100.00
16120;BME280;12670;53.502;10.252;2022-10-16T01:58:51;100641.44;;;14.30;100.00
16120;BME280;12670;53.502;10.252;2022-10-16T02:01:58;100650.34;;;14.60;100.00
16120;BME280;12670;53.502;10.252;2022-10-16T02:05:08;100652.00;;;14.47;100.00
16120;BME280;12670;53.502;10.252;2022-10-16T02:08:14;100641.94;;;14.52;100.00
16120;BME280;12670;53.502;10.252;2022-10-16T02:11:16;100649.94;;;14.52;100.00
16120;BME280;12670;53.502;10.252;2022-10-16T02:14:21;100647.59;;;14.46;100.00
16120;BME280;12670;53.502;10.252;2022-10-16T02:17:26;100643.34;;;14.28;100.00
16120;BME280;12670;53.502;10.252;2022-10-16T02:20:32;100654.75;;;14.16;100.00
16120;BME280;12670;53.502;10.252;2022-10-16T02:23:43;100653.38;;;14.08;100.00
16120;BME280;12670;53.502;10.252;2022-10-16T02:26:51;100642.16;;;14.18;100.00
16120;BME280;12670;53.502;10.252;2022-10-16T02:30:00;100653.72;;;14.02;100.00
16120;BME280;12670;53.502;10.252;2022-10-16T02:33:10;100653.03;;;14.14;100.00
16120;BME280;12670;53.502;10.252;2022-10-16T02:36:14;100644.75;;;14.19;100.00
16120;BME280;12670;53.502;10.252;2022-10-16T02:39:18;100656.28;;;14.20;100.00
16120;BME280;12670;53.502;10.252;2022-10-16T02:42:27;100649.56;;;14.12;100.00
16120;BME280;12670;53.502;10.252;2022-10-16T02:45:31;100653.84;;;14.31;100.00
16120;BME280;12670;53.502;10.252;2022-10-16T02:48:34;100650.75;;;14.23;100.00
16120;BME280;12670;53.502;10.252;2022-10-16T02:51:37;100646.41;;;14.36;100.00
16120;BME280;12670;53.502;10.252;2022-10-16T02:54:39;100644.31;;;14.27;100.00
16120;BME280;12670;53.502;10.252;2022-10-16T02:57:42;100650.13;;;13.72;100.00
16120;BME280;12670;53.502;10.252;2022-10-16T03:00:46;100658.47;;;13.97;100.00
16120;BME280;12670;53.502;10.252;2022-10-16T03:03:49;100659.06;;;14.02;100.00
16120;BME280;12670;53.502;10.252;2022-10-16T03:06:51;100658.28;;;14.00;100.00
16120;BME280;12670;53.502;10.252;2022-10-16T03:09:54;100654.94;;;13.97;100.00
16120;BME280;12670;53.502;10.252;2022-10-16T03:12:56;100649.16;;;14.04;100.00
16120;BME280;12670;53.502;10.252;2022-10-16T03:16:00;100659.56;;;14.09;100.00
16120;BME280;12670;53.502;10.252;2022-10-16T03:19:03;100649.78;;;13.94;100.00
16120;BME280;12670;53.502;10.252;2022-10-16T03:22:05;100654.19;;;13.79;100.00
16120;BME280;12670;53.502;10.252;2022-10-16T03:25:08;100655.72;;;13.83;100.00
16120;BME280;12670;53.502;10.252;2022-10-16T03:28:10;100668.22;;;13.67;100.00
16120;BME280;12670;53.502;10.252;2022-10-16T03:31:14;100664.75;;;13.65;100.00
16120;BME280;12670;53.502;10.252;2022-10-16T03:34:17;100658.81;;;13.91;100.00
16120;BME280;12670;53.502;10.252;2022-10-16T03:37:19;100647.00;;;13.95;100.00
16120;BME280;12670;53.502;10.252;2022-10-16T03:40:22;100642.16;;;14.18;100.00
16120;BME280;12670;53.502;10.252;2022-10-16T03:43:24;100648.66;;;14.13;100.00
16120;BME280;12670;53.502;10.252;2022-10-16T03:46:28;100657.75;;;14.09;100.00
16120;BME280;12670;53.502;10.252;2022-10-16T03:49:30;100670.25;;;13.77;100.00
16120;BME280;12670;53.502;10.252;2022-10-16T03:52:33;100658.66;;;13.78;100.00
16120;BME280;12670;53.502;10.252;2022-10-16T03:55:36;100658.22;;;13.86;100.00
16120;BME280;12670;53.502;10.252;2022-10-16T03:58:38;100661.47;;;13.59;100.00
16120;BME280;12670;53.502;10.252;2022-10-16T04:01:42;100665.72;;;13.79;100.00
16120;BME280;12670;53.502;10.252;2022-10-16T04:04:45;100665.47;;;13.84;100.00
16120;BME280;12670;53.502;10.252;2022-10-16T04:07:47;100678.34;;;13.92;100.00
16120;BME280;12670;53.502;10.252;2022-10-16T04:10:50;100686.06;;;13.65;100.00
16120;BME280;12670;53.502;10.252;2022-10-16T04:13:52;100683.34;;;13.66;100.00
16120;BME280;12670;53.502;10.252;2022-10-16T04:16:56;100698.47;;;13.97;100.00
16120;BME280;12670;53.502;10.252;2022-10-16T04:19:59;100700.53;;;13.92;100.00
16120;BME280;12670;53.502;10.252;2022-10-16T04:23:01;100704.31;;;13.56;100.00
16120;BME280;12670;53.502;10.252;2022-10-16T04:26:04;100705.44;;;13.68;100.00
16120;BME280;12670;53.502;10.252;2022-10-16T04:29:06;100704.78;;;13.47;100.00
16120;BME280;12670;53.502;10.252;2022-10-16T04:32:10;100703.63;;;13.69;100.00
16120;BME280;12670;53.502;10.252;2022-10-16T04:35:13;100706.69;;;13.45;100.00
16120;BME280;12670;53.502;10.252;2022-10-16T04:38:15;100702.94;;;13.65;100.00
16120;BME280;12670;53.502;10.252;2022-10-16T04:41:18;100713.81;;;13.78;100.00
16120;BME280;12670;53.502;10.252;2022-10-16T04:44:21;100721.53;;;13.67;100.00
16120;BME280;12670;53.502;10.252;2022-10-16T04:47:24;100725.09;;;13.66;100.00
16120;BME280;12670;53.502;10.252;2022-10-16T04:50:27;100727.03;;;13.79;100.00
16120;BME280;12670;53.502;10.252;2022-10-16T04:53:30;100730.38;;;13.83;100.00
16120;BME280;12670;53.502;10.252;2022-10-16T04:56:32;100735.19;;;13.76;100.00
16120;BME280;12670;53.502;10.252;2022-10-16T04:59:41;100738.38;;;13.83;100.00
16120;BME280;12670;53.502;10.252;2022-10-16T05:02:45;100736.06;;;13.77;100.00
16120;BME280;12670;53.502;10.252;2022-10-16T05:05:47;100719.78;;;13.66;100.00
16120;BME280;12670;53.502;10.252;2022-10-16T05:08:50;100723.25;;;13.68;100.00
16120;BME280;12670;53.502;10.252;2022-10-16T05:11:52;100739.31;;;13.82;100.00
16120;BME280;12670;53.502;10.252;2022-10-16T05:14:55;100742.84;;;13.82;100.00
16120;BME280;12670;53.502;10.252;2022-10-16T05:18:01;100744.91;;;13.77;100.00
16120;BME280;12670;53.502;10.252;2022-10-16T05:21:04;100739.72;;;13.58;100.00
16120;BME280;12670;53.502;10.252;2022-10-16T05:24:07;100745.34;;;13.70;100.00
16120;BME280;12670;53.502;10.252;2022-10-16T05:27:10;100756.75;;;13.72;100.00
16120;BME280;12670;53.502;10.252;2022-10-16T05:30:19;100758.09;;;13.47;100.00
16120;BME280;12670;53.502;10.252;2022-10-16T05:33:25;100752.28;;;13.56;100.00
16120;BME280;12670;53.502;10.252;2022-10-16T05:36:27;100754.75;;;13.44;100.00
16120;BME280;12670;53.502;10.252;2022-10-16T05:39:30;100759.03;;;13.46;100.00
16120;BME280;12670;53.502;10.252;2022-10-16T05:42:32;100759.94;;;13.63;100.00
16120;BME280;12670;53.502;10.252;2022-10-16T05:45:35;100761.22;;;13.55;100.00
16120;BME280;12670;53.502;10.252;2022-10-16T05:48:39;100762.63;;;13.63;100.00
16120;BME280;12670;53.502;10.252;2022-10-16T05:51:41;100763.13;;;13.69;100.00
16120;BME280;12670;53.502;10.252;2022-10-16T05:54:44;100756.06;;;13.52;100.00
16120;BME280;12670;53.502;10.252;2022-10-16T05:57:46;100757.22;;;13.31;100.00
16120;BME280;12670;53.502;10.252;2022-10-16T06:00:56;100764.09;;;13.35;100.00
16120;BME280;12670;53.502;10.252;2022-10-16T06:04:00;100768.06;;;13.44;100.00
16120;BME280;12670;53.502;10.252;2022-10-16T06:07:02;100769.91;;;13.59;100.00
16120;BME280;12670;53.502;10.252;2022-10-16T06:10:06;100778.59;;;13.63;100.00
16120;BME280;12670;53.502;10.252;2022-10-16T06:13:09;100777.91;;;13.59;100.00
16120;BME280;12670;53.502;10.252;2022-10-16T06:16:12;100787.56;;;13.62;100.00
16120;BME280;12670;53.502;10.252;2022-10-16T06:19:16;100784.28;;;13.56;100.00
16120;BME280;12670;53.502;10.252;2022-10-16T06:22:19;100783.50;;;13.54;100.00
16120;BME280;12670;53.502;10.252;2022-10-16T06:25:22;100775.22;;;13.59;100.00
16120;BME280;12670;53.502;10.252;2022-10-16T06:28:24;100776.81;;;13.63;100.00
16120;BME280;12670;53.502;10.252;2022-10-16T06:31:28;100784.56;;;13.68;100.00
16120;BME280;12670;53.502;10.252;2022-10-16T06:34:33;100791.69;;;13.67;100.00
16120;BME280;12670;53.502;10.252;2022-10-16T06:37:37;100796.19;;;13.67;100.00
16120;BME280;12670;53.502;10.252;2022-10-16T06:40:40;100795.63;;;13.60;100.00
16120;BME280;12670;53.502;10.252;2022-10-16T06:43:43;100793.75;;;13.62;100.00
16120;BME280;12670;53.502;10.252;2022-10-16T06:46:46;100798.56;;;13.55;100.00
16120;BME280;12670;53.502;10.252;2022-10-16T06:49:50;100803.78;;;13.57;100.00
16120;BME280;12670;53.502;10.252;2022-10-16T06:52:54;100810.06;;;13.56;100.00
16120;BME280;12670;53.502;10.252;2022-10-16T06:55:57;100814.44;;;13.57;100.00
16120;BME280;12670;53.502;10.252;2022-10-16T06:59:00;100815.84;;;13.64;100.00
16120;BME280;12670;53.502;10.252;2022-10-16T07:02:02;100821.91;;;13.50;100.00
16120;BME280;12670;53.502;10.252;2022-10-16T07:05:07;100813.06;;;13.50;100.00
16120;BME280;12670;53.502;10.252;2022-10-16T07:08:09;100816.09;;;13.59;100.00
16120;BME280;12670;53.502;10.252;2022-10-16T07:11:13;100827.88;;;13.55;100.00
16120;BME280;12670;53.502;10.252;2022-10-16T07:14:18;100831.19;;;13.76;100.00
16120;BME280;12670;53.502;10.252;2022-10-16T07:17:20;100834.72;;;13.77;100.00
16120;BME280;12670;53.502;10.252;2022-10-16T07:20:24;100835.31;;;13.82;100.00
16120;BME280;12670;53.502;10.252;2022-10-16T07:23:27;100840.94;;;13.93;100.00
16120;BME280;12670;53.502;10.252;2022-10-16T07:26:32;100841.69;;;13.79;100.00
16120;BME280;12670;53.502;10.252;2022-10-16T07:29:35;100844.91;;;13.86;100.00
16120;BME280;12670;53.502;10.252;2022-10-16T07:32:37;100850.22;;;13.86;100.00
16120;BME280;12670;53.502;10.252;2022-10-16T07:35:48;100853.50;;;13.91;100.00
16120;BME280;12670;53.502;10.252;2022-10-16T07:38:51;100856.28;;;14.05;100.00
16120;BME280;12670;53.502;10.252;2022-10-16T07:42:00;100869.13;;;14.14;100.00
16120;BME280;12670;53.502;10.252;2022-10-16T07:45:03;100871.53;;;14.03;100.00
16120;BME280;12670;53.502;10.252;2022-10-16T07:48:05;100875.31;;;14.48;100.00
16120;BME280;12670;53.502;10.252;2022-10-16T07:51:10;100883.53;;;14.44;100.00
16120;BME280;12670;53.502;10.252;2022-10-16T07:54:12;100888.31;;;14.70;100.00
16120;BME280;12670;53.502;10.252;2022-10-16T07:57:15;100891.22;;;14.81;100.00
16120;BME280;12670;53.502;10.252;2022-10-16T08:00:20;100893.38;;;14.75;100.00
16120;BME280;12670;53.502;10.252;2022-10-16T08:03:23;100893.13;;;14.79;100.00
16120;BME280;12670;53.502;10.252;2022-10-16T08:06:27;100897.13;;;15.18;100.00
16120;BME280;12670;53.502;10.252;2022-10-16T08:09:30;100901.91;;;15.43;100.00
16120;BME280;12670;53.502;10.252;2022-10-16T08:12:32;100894.50;;;15.32;100.00
16120;BME280;12670;53.502;10.252;2022-10-16T08:15:35;100896.78;;;15.54;100.00
16120;BME280;12670;53.502;10.252;2022-10-16T08:18:39;100903.41;;;15.47;100.00
16120;BME280;12670;53.502;10.252;2022-10-16T08:21:42;100898.84;;;15.79;100.00
16120;BME280;12670;53.502;10.252;2022-10-16T08:24:48;100904.09;;;15.66;100.00
16120;BME280;12670;53.502;10.252;2022-10-16T08:27:51;100908.97;;;15.58;100.00
16120;BME280;12670;53.502;10.252;2022-10-16T08:30:53;100910.19;;;15.38;100.00
16120;BME280;12670;53.502;10.252;2022-10-16T08:33:57;100908.69;;;15.18;100.00
16120;BME280;12670;53.502;10.252;2022-10-16T08:37:01;100914.19;;;15.31;100.00
16120;BME280;12670;53.502;10.252;2022-10-16T08:40:06;100912.75;;;15.40;100.00
16120;BME280;12670;53.502;10.252;2022-10-16T08:43:21;100911.31;;;15.34;100.00
16120;BME280;12670;53.502;10.252;2022-10-16T08:46:39;100915.06;;;15.76;100.00
16120;BME280;12670;53.502;10.252;2022-10-16T08:49:56;100913.78;;;15.83;100.00
16120;BME280;12670;53.502;10.252;2022-10-16T08:53:03;100915.78;;;16.08;100.00
16120;BME280;12670;53.502;10.252;2022-10-16T08:56:06;100920.09;;;16.39;100.00
16120;BME280;12670;53.502;10.252;2022-10-16T08:59:10;100918.81;;;16.59;98.71
16120;BME280;12670;53.502;10.252;2022-10-16T09:02:23;100911.81;;;16.85;100.00
16120;BME280;12670;53.502;10.252;2022-10-16T09:05:44;100930.97;;;17.06;99.44
16120;BME280;12670;53.502;10.252;2022-10-16T09:09:01;100926.81;;;16.88;98.67
16120;BME280;12670;53.502;10.252;2022-10-16T09:12:11;100924.28;;;16.72;98.94
16120;BME280;12670;53.502;10.252;2022-10-16T09:15:22;100934.63;;;17.05;98.40
16120;BME280;12670;53.502;10.252;2022-10-16T09:18:29;100934.19;;;17.65;94.14
16120;BME280;12670;53.502;10.252;2022-10-16T09:21:37;100933.25;;;17.39;95.22
16120;BME280;12670;53.502;10.252;2022-10-16T09:24:43;100936.06;;;17.50;93.20
16120;BME280;12670;53.502;10.252;2022-10-16T09:27:48;100946.25;;;18.10;93.63
16120;BME280;12670;53.502;10.252;2022-10-16T09:30:53;100951.50;;;17.87;90.59
16120;BME280;12670;53.502;10.252;2022-10-16T09:33:58;100955.28;;;18.09;88.76
16120;BME280;12670;53.502;10.252;2022-10-16T09:37:04;100960.22;;;18.16;86.18
16120;BME280;12670;53.502;10.252;2022-10-16T09:40:24;100969.22;;;18.78;86.17
16120;BME280;12670;53.502;10.252;2022-10-16T09:43:32;100969.25;;;18.53;84.97
16120;BME280;12670;53.502;10.252;2022-10-16T09:46:36;100970.06;;;18.66;85.72
16120;BME280;12670;53.502;10.252;2022-10-16T09:49:50;100972.38;;;18.96;82.76
16120;BME280;12670;53.502;10.252;2022-10-16T09:53:03;100964.91;;;19.95;79.75
16120;BME280;12670;53.502;10.252;2022-10-16T09:56:10;100972.09;;;19.84;76.26
16120;BME280;12670;53.502;10.252;2022-10-16T09:59:16;100974.22;;;20.03;75.24
16120;BME280;12670;53.502;10.252;2022-10-16T10:02:20;100970.31;;;20.07;73.25
16120;BME280;12670;53.502;10.252;2022-10-16T10:05:27;100986.97;;;19.05;76.41
16120;BME280;12670;53.502;10.252;2022-10-16T10:08:30;100989.34;;;19.81;74.53
16120;BME280;12670;53.502;10.252;2022-10-16T10:11:51;100989.72;;;20.90;68.44
16120;BME280;12670;53.502;10.252;2022-10-16T10:14:56;100997.50;;;21.38;66.01
16120;BME280;12670;53.502;10.252;2022-10-16T10:18:00;100992.91;;;20.95;66.11
16120;BME280;12670;53.502;10.252;2022-10-16T10:21:04;101008.09;;;22.67;62.22
16120;BME280;12670;53.502;10.252;2022-10-16T10:24:10;101006.59;;;23.04;58.46
16120;BME280;12670;53.502;10.252;2022-10-16T10:27:16;101004.94;;;23.42;58.27
16120;BME280;12670;53.502;10.252;2022-10-16T10:30:23;101004.09;;;23.51;56.84
16120;BME280;12670;53.502;10.252;2022-10-16T10:33:31;100998.44;;;24.50;51.78
16120;BME280;12670;53.502;10.252;2022-10-16T10:36:38;100994.47;;;24.44;51.07
16120;BME280;12670;53.502;10.252;2022-10-16T10:39:46;101000.66;;;25.11;49.97
16120;BME280;12670;53.502;10.252;2022-10-16T10:42:59;101004.69;;;24.69;50.15
16120;BME280;12670;53.502;10.252;2022-10-16T10:46:09;101009.38;;;24.67;48.69
16120;BME280;12670;53.502;10.252;2022-10-16T10:49:45;101016.03;;;24.26;48.78
16120;BME280;12670;53.502;10.252;2022-10-16T10:53:01;101010.75;;;24.81;47.49
16120;BME280;12670;53.502;10.252;2022-10-16T10:56:15;101020.03;;;25.97;45.38
16120;BME280;12670;53.502;10.252;2022-10-16T11:03:03;101019.25;;;25.51;44.37
16120;BME280;12670;53.502;10.252;2022-10-16T11:06:11;101025.91;;;25.39;45.97
16120;BME280;12670;53.502;10.252;2022-10-16T11:09:17;101027.94;;;24.06;49.40
16120;BME280;12670;53.502;10.252;2022-10-16T11:12:25;101028.03;;;25.17;48.04
16120;BME280;12670;53.502;10.252;2022-10-16T11:15:34;101025.56;;;26.31;44.33
16120;BME280;12670;53.502;10.252;2022-10-16T11:18:46;101022.06;;;26.21;42.50
16120;BME280;12670;53.502;10.252;2022-10-16T11:21:59;101026.94;;;25.10;45.37
16120;BME280;12670;53.502;10.252;2022-10-16T11:25:12;101034.41;;;23.45;49.73
16120;BME280;12670;53.502;10.252;2022-10-16T11:28:20;101026.97;;;23.18;49.52
16120;BME280;12670;53.502;10.252;2022-10-16T11:31:37;101031.09;;;22.82;51.63
16120;BME280;12670;53.502;10.252;2022-10-16T11:34:44;101030.22;;;22.51;53.52
16120;BME280;12670;53.502;10.252;2022-10-16T11:37:50;101037.22;;;23.14;51.23
16120;BME280;12670;53.502;10.252;2022-10-16T11:41:00;101052.88;;;23.90;49.69
16120;BME280;12670;53.502;10.252;2022-10-16T11:44:19;101038.91;;;23.65;49.45
16120;BME280;12670;53.502;10.252;2022-10-16T11:47:34;101039.09;;;23.24;49.82
16120;BME280;12670;53.502;10.252;2022-10-16T11:51:02;101051.59;;;24.13;48.21
16120;BME280;12670;53.502;10.252;2022-10-16T11:54:15;101052.72;;;22.51;52.31
16120;BME280;12670;53.502;10.252;2022-10-16T11:57:24;101054.47;;;22.62;52.37
16120;BME280;12670;53.502;10.252;2022-10-16T12:00:34;101060.25;;;23.59;49.70
16120;BME280;12670;53.502;10.252;2022-10-16T12:03:43;101074.94;;;22.76;50.94
16120;BME280;12670;53.502;10.252;2022-10-16T12:06:55;101078.53;;;22.02;54.17
16120;BME280;12670;53.502;10.252;2022-10-16T12:10:10;101081.09;;;21.72;55.73
16120;BME280;12670;53.502;10.252;2022-10-16T12:13:32;101085.09;;;21.23;57.27
16120;BME280;12670;53.502;10.252;2022-10-16T12:16:37;101083.88;;;20.60;56.00
16120;BME280;12670;53.502;10.252;2022-10-16T12:19:41;101092.78;;;20.14;58.29
16120;BME280;12670;53.502;10.252;2022-10-16T12:22:48;101107.13;;;20.26;58.60
16120;BME280;12670;53.502;10.252;2022-10-16T12:25:54;101102.66;;;21.28;57.31
16120;BME280;12670;53.502;10.252;2022-10-16T12:29:12;101104.84;;;21.12;57.71
16120;BME280;12670;53.502;10.252;2022-10-16T12:32:27;101098.41;;;20.57;59.75
16120;BME280;12670;53.502;10.252;2022-10-16T12:35:49;101111.78;;;20.23;62.11
16120;BME280;12670;53.502;10.252;2022-10-16T12:38:53;101110.56;;;20.63;60.32
16120;BME280;12670;53.502;10.252;2022-10-16T12:42:04;101113.28;;;20.74;59.78
16120;BME280;12670;53.502;10.252;2022-10-16T12:45:24;101114.75;;;20.67;60.54
16120;BME280;12670;53.502;10.252;2022-10-16T12:48:28;101120.91;;;20.45;60.04
16120;BME280;12670;53.502;10.252;2022-10-16T12:51:51;101128.19;;;20.20;61.69
16120;BME280;12670;53.502;10.252;2022-10-16T12:54:56;101123.63;;;19.86;62.62
16120;BME280;12670;53.502;10.252;2022-10-16T13:01:37;101133.78;;;23.54;51.52
16120;BME280;12670;53.502;10.252;2022-10-16T13:04:49;101138.06;;;25.76;45.98
16120;BME280;12670;53.502;10.252;2022-10-16T13:08:09;101135.19;;;26.67;42.68
16120;BME280;12670;53.502;10.252;2022-10-16T13:11:25;101143.34;;;28.12;39.93
16120;BME280;12670;53.502;10.252;2022-10-16T13:14:49;101143.72;;;27.24;41.53
16120;BME280;12670;53.502;10.252;2022-10-16T13:18:03;101158.50;;;26.96;41.19
16120;BME280;12670;53.502;10.252;2022-10-16T13:21:18;101164.00;;;26.52;40.46
16120;BME280;12670;53.502;10.252;2022-10-16T13:24:46;101162.69;;;27.34;38.69
16120;BME280;12670;53.502;10.252;2022-10-16T13:27:54;101163.66;;;28.09;37.94
16120;BME280;12670;53.502;10.252;2022-10-16T13:30:58;101173.91;;;27.31;37.06
16120;BME280;12670;53.502;10.252;2022-10-16T13:34:03;101172.22;;;25.14;41.17
16120;BME280;12670;53.502;10.252;2022-10-16T13:37:17;101188.47;;;23.38;45.55
16120;BME280;12670;53.502;10.252;2022-10-16T13:40:23;101191.31;;;23.67;48.27
16120;BME280;12670;53.502;10.252;2022-10-16T13:43:29;101187.34;;;23.41;48.97
16120;BME280;12670;53.502;10.252;2022-10-16T13:46:34;101196.66;;;22.76;49.79
16120;BME280;12670;53.502;10.252;2022-10-16T13:49:36;101196.16;;;22.18;50.41
16120;BME280;12670;53.502;10.252;2022-10-16T13:52:39;101192.47;;;22.19;52.91
16120;BME280;12670;53.502;10.252;2022-10-16T13:55:43;101199.38;;;22.00;54.86
16120;BME280;12670;53.502;10.252;2022-10-16T13:58:46;101205.09;;;21.52;53.23
16120;BME280;12670;53.502;10.252;2022-10-16T14:02:00;101220.69;;;20.91;55.65
16120;BME280;12670;53.502;10.252;2022-10-16T14:05:09;101206.41;;;21.24;57.47
16120;BME280;12670;53.502;10.252;2022-10-16T14:08:12;101221.66;;;20.79;56.97
16120;BME280;12670;53.502;10.252;2022-10-16T14:11:21;101217.69;;;21.18;56.76
16120;BME280;12670;53.502;10.252;2022-10-16T14:14:27;101229.81;;;21.13;57.69
16120;BME280;12670;53.502;10.252;2022-10-16T14:17:35;101223.41;;;21.02;56.95
16120;BME280;12670;53.502;10.252;2022-10-16T14:20:38;101234.53;;;20.87;58.14
16120;BME280;12670;53.502;10.252;2022-10-16T14:23:42;101227.59;;;20.60;60.06
16120;BME280;12670;53.502;10.252;2022-10-16T14:26:46;101238.50;;;20.22;57.33
16120;BME280;12670;53.502;10.252;2022-10-16T14:30:08;101239.03;;;20.03;58.17
16120;BME280;12670;53.502;10.252;2022-10-16T14:33:22;101246.53;;;20.11;59.85
16120;BME280;12670;53.502;10.252;2022-10-16T14:36:25;101258.72;;;20.04;59.91
16120;BME280;12670;53.502;10.252;2022-10-16T14:39:29;101261.25;;;19.94;58.40
16120;BME280;12670;53.502;10.252;2022-10-16T14:42:33;101265.50;;;20.09;58.68
16120;BME280;12670;53.502;10.252;2022-10-16T14:45:36;101261.31;;;20.42;60.02
16120;BME280;12670;53.502;10.252;2022-10-16T14:48:42;101268.06;;;20.11;56.94
16120;BME280;12670;53.502;10.252;2022-10-16T14:51:45;101275.94;;;19.77;59.00
16120;BME280;12670;53.502;10.252;2022-10-16T14:54:48;101285.63;;;19.80;59.15
16120;BME280;12670;53.502;10.252;2022-10-16T14:57:52;101276.78;;;19.52;58.69
16120;BME280;12670;53.502;10.252;2022-10-16T15:01:01;101274.88;;;19.41;59.81
16120;BME280;12670;53.502;10.252;2022-10-16T15:04:03;101277.81;;;18.99;60.00
16120;BME280;12670;53.502;10.252;2022-10-16T15:07:07;101279.78;;;19.09;61.03
16120;BME280;12670;53.502;10.252;2022-10-16T15:10:10;101279.22;;;19.04;60.73
16120;BME280;12670;53.502;10.252;2022-10-16T15:13:13;101286.03;;;18.70;61.01
16120;BME280;12670;53.502;10.252;2022-10-16T15:16:16;101282.00;;;18.77;62.16
16120;BME280;12670;53.502;10.252;2022-10-16T15:19:19;101288.66;;;18.72;62.76
16120;BME280;12670;53.502;10.252;2022-10-16T15:22:21;101291.50;;;18.42;62.97
16120;BME280;12670;53.502;10.252;2022-10-16T15:25:31;101305.44;;;18.61;65.56
16120;BME280;12670;53.502;10.252;2022-10-16T15:28:35;101303.88;;;18.44;64.61
16120;BME280;12670;53.502;10.252;2022-10-16T15:31:38;101304.88;;;18.56;64.74
16120;BME280;12670;53.502;10.252;2022-10-16T15:34:43;101315.81;;;18.67;65.55
16120;BME280;12670;53.502;10.252;2022-10-16T15:37:46;101315.47;;;18.45;66.02
16120;BME280;12670;53.502;10.252;2022-10-16T15:40:49;101317.41;;;18.43;67.22
16120;BME280;12670;53.502;10.252;2022-10-16T15:43:53;101311.50;;;18.23;67.57
16120;BME280;12670;53.502;10.252;2022-10-16T15:46:56;101312.91;;;18.43;69.61
16120;BME280;12670;53.502;10.252;2022-10-16T15:49:59;101322.50;;;18.33;70.61
16120;BME280;12670;53.502;10.252;2022-10-16T15:53:01;101324.84;;;18.25;71.27
16120;BME280;12670;53.502;10.252;2022-10-16T15:56:04;101328.50;;;18.09;72.93
16120;BME280;12670;53.502;10.252;2022-10-16T15:59:08;101329.78;;;17.90;72.68
16120;BME280;12670;53.502;10.252;2022-10-16T16:02:11;101339.38;;;17.79;73.92